Track Солодейников Федор

Time Latitude Longitude Accuracy (66% radius in meters) Altitude (meters) Speed (km/hour) Bearing (degrees) Battery (%) GPS flag
09:25:11 60.370595 29.556910 0 0 0 0 1 delete
09:25:10 60.370535 29.556971 0 0 0 0 1 delete
09:25:09 60.370479 29.557056 0 0 0 0 1 delete
09:25:08 60.370471 29.557129 0 0 0 0 1 delete
09:25:07 60.370477 29.557177 0 0 0 0 1 delete
09:25:06 60.370496 29.557236 0 0 0 0 1 delete
09:25:05 60.370532 29.557303 0 0 0 0 1 delete
09:25:04 60.370586 29.557361 0 0 0 0 1 delete
09:25:03 60.370646 29.557375 0 0 0 0 1 delete
09:25:02 60.370707 29.557347 0 0 0 0 1 delete
09:25:01 60.370769 29.557302 0 0 0 0 1 delete
09:25:00 60.370829 29.557250 0 0 0 0 1 delete
09:24:59 60.370889 29.557202 0 0 0 0 1 delete
09:24:58 60.370950 29.557161 0 0 0 0 1 delete
09:24:57 60.371017 29.557117 0 0 0 0 1 delete
09:24:56 60.371084 29.557083 0 0 0 0 1 delete
09:24:55 60.371150 29.557067 0 0 0 0 1 delete
09:24:54 60.371213 29.557081 0 0 0 0 1 delete
09:24:53 60.371274 29.557111 0 0 0 0 1 delete
09:24:52 60.371333 29.557152 0 0 0 0 1 delete
09:24:51 60.371388 29.557219 0 0 0 0 1 delete
09:24:50 60.371443 29.557301 0 0 0 0 1 delete
09:24:49 60.371497 29.557388 0 0 0 0 1 delete
09:24:48 60.371554 29.557470 0 0 0 0 1 delete
09:24:47 60.371603 29.557559 0 0 0 0 1 delete
09:24:46 60.371648 29.557658 0 0 0 0 1 delete
09:24:45 60.371686 29.557764 0 0 0 0 1 delete
09:24:44 60.371720 29.557863 0 0 0 0 1 delete
09:24:43 60.371745 29.557953 0 0 0 0 1 delete
09:24:42 60.371763 29.558038 0 0 0 0 1 delete
09:24:41 60.371780 29.558118 0 0 0 0 1 delete
09:24:40 60.371798 29.558193 0 0 0 0 1 delete
09:24:39 60.371811 29.558258 0 0 0 0 1 delete
09:24:38 60.371821 29.558311 0 0 0 0 1 delete
09:24:37 60.371822 29.558348 0 0 0 0 1 delete
09:24:36 60.371819 29.558346 0 0 0 0 1 delete
09:24:35 60.371822 29.558346 0 0 0 0 1 delete
09:24:34 60.371838 29.558362 0 0 0 0 1 delete
09:24:33 60.371860 29.558428 0 0 0 0 1 delete
09:24:32 60.371883 29.558517 0 0 0 0 1 delete
09:24:31 60.371901 29.558624 0 0 0 0 1 delete
09:24:30 60.371920 29.558744 0 0 0 0 1 delete
09:24:29 60.371936 29.558866 0 0 0 0 1 delete
09:24:28 60.371951 29.558992 0 0 0 0 1 delete
09:24:27 60.371970 29.559120 0 0 0 0 1 delete
09:24:26 60.371991 29.559256 0 0 0 0 1 delete
09:24:25 60.372009 29.559399 0 0 0 0 1 delete
09:24:24 60.372028 29.559542 0 0 0 0 1 delete
09:24:23 60.372054 29.559686 0 0 0 0 1 delete
09:24:22 60.372085 29.559831 0 0 0 0 1 delete